sensor_id;sensor_type;location;lat;lon;timestamp;P1;durP1;ratioP1;P2;durP2;ratioP2
29662;SDS011;16578;53.266;7.920;2023-04-07T00:02:14;15.38;;;11.13;;
29662;SDS011;16578;53.266;7.920;2023-04-07T00:04:40;14.68;;;11.15;;
29662;SDS011;16578;53.266;7.920;2023-04-07T00:07:05;14.35;;;11.20;;
29662;SDS011;16578;53.266;7.920;2023-04-07T00:09:31;14.10;;;10.25;;
29662;SDS011;16578;53.266;7.920;2023-04-07T00:11:57;12.10;;;10.80;;
29662;SDS011;16578;53.266;7.920;2023-04-07T00:14:22;13.68;;;11.07;;
29662;SDS011;16578;53.266;7.920;2023-04-07T00:16:48;12.70;;;10.02;;
29662;SDS011;16578;53.266;7.920;2023-04-07T00:19:13;12.85;;;10.75;;
29662;SDS011;16578;53.266;7.920;2023-04-07T00:21:39;11.60;;;10.40;;
29662;SDS011;16578;53.266;7.920;2023-04-07T00:24:05;13.40;;;10.95;;
29662;SDS011;16578;53.266;7.920;2023-04-07T00:26:30;17.73;;;10.43;;
29662;SDS011;16578;53.266;7.920;2023-04-07T00:28:57;13.48;;;10.65;;
29662;SDS011;16578;53.266;7.920;2023-04-07T00:31:23;11.23;;;9.93;;
29662;SDS011;16578;53.266;7.920;2023-04-07T00:33:48;13.07;;;9.95;;
29662;SDS011;16578;53.266;7.920;2023-04-07T00:36:14;13.93;;;10.57;;
29662;SDS011;16578;53.266;7.920;2023-04-07T00:38:39;13.30;;;10.10;;
29662;SDS011;16578;53.266;7.920;2023-04-07T00:41:05;14.32;;;10.95;;
29662;SDS011;16578;53.266;7.920;2023-04-07T00:43:31;13.52;;;9.68;;
29662;SDS011;16578;53.266;7.920;2023-04-07T00:45:56;12.25;;;10.07;;
29662;SDS011;16578;53.266;7.920;2023-04-07T00:48:22;12.20;;;10.02;;
29662;SDS011;16578;53.266;7.920;2023-04-07T00:50:48;12.75;;;9.68;;
29662;SDS011;16578;53.266;7.920;2023-04-07T00:53:14;12.07;;;10.10;;
29662;SDS011;16578;53.266;7.920;2023-04-07T00:55:40;12.93;;;8.98;;
29662;SDS011;16578;53.266;7.920;2023-04-07T00:58:06;14.40;;;10.20;;
29662;SDS011;16578;53.266;7.920;2023-04-07T01:00:32;14.05;;;9.80;;
29662;SDS011;16578;53.266;7.920;2023-04-07T01:03:10;13.25;;;10.20;;
29662;SDS011;16578;53.266;7.920;2023-04-07T01:06:06;10.75;;;9.18;;
29662;SDS011;16578;53.266;7.920;2023-04-07T01:08:37;13.02;;;10.32;;
29662;SDS011;16578;53.266;7.920;2023-04-07T01:11:23;12.65;;;10.57;;
29662;SDS011;16578;53.266;7.920;2023-04-07T01:13:54;13.55;;;10.77;;
29662;SDS011;16578;53.266;7.920;2023-04-07T01:16:25;14.13;;;10.15;;
29662;SDS011;16578;53.266;7.920;2023-04-07T01:18:56;14.50;;;10.63;;
29662;SDS011;16578;53.266;7.920;2023-04-07T01:21:28;12.80;;;10.13;;
29662;SDS011;16578;53.266;7.920;2023-04-07T01:26:48;12.60;;;10.80;;
29662;SDS011;16578;53.266;7.920;2023-04-07T01:32:01;14.02;;;10.73;;
29662;SDS011;16578;53.266;7.920;2023-04-07T01:34:30;14.98;;;10.30;;
29662;SDS011;16578;53.266;7.920;2023-04-07T01:36:57;14.88;;;10.50;;
29662;SDS011;16578;53.266;7.920;2023-04-07T01:39:26;14.48;;;10.60;;
29662;SDS011;16578;53.266;7.920;2023-04-07T01:41:52;14.63;;;11.32;;
29662;SDS011;16578;53.266;7.920;2023-04-07T01:44:19;14.98;;;11.88;;
29662;SDS011;16578;53.266;7.920;2023-04-07T01:46:45;16.63;;;11.60;;
29662;SDS011;16578;53.266;7.920;2023-04-07T01:49:12;16.48;;;11.82;;
29662;SDS011;16578;53.266;7.920;2023-04-07T01:51:39;15.27;;;11.48;;
29662;SDS011;16578;53.266;7.920;2023-04-07T01:54:05;15.68;;;11.77;;
29662;SDS011;16578;53.266;7.920;2023-04-07T01:56:32;16.20;;;11.60;;
29662;SDS011;16578;53.266;7.920;2023-04-07T01:58:57;15.57;;;12.60;;
29662;SDS011;16578;53.266;7.920;2023-04-07T02:01:23;18.25;;;12.57;;
29662;SDS011;16578;53.266;7.920;2023-04-07T02:03:55;18.30;;;12.68;;
29662;SDS011;16578;53.266;7.920;2023-04-07T02:06:50;14.05;;;11.35;;
29662;SDS011;16578;53.266;7.920;2023-04-07T02:09:19;16.77;;;13.60;;
29662;SDS011;16578;53.266;7.920;2023-04-07T02:11:46;17.40;;;13.02;;
29662;SDS011;16578;53.266;7.920;2023-04-07T02:14:15;19.58;;;13.77;;
29662;SDS011;16578;53.266;7.920;2023-04-07T02:16:42;17.48;;;13.00;;
29662;SDS011;16578;53.266;7.920;2023-04-07T02:19:08;18.27;;;12.82;;
29662;SDS011;16578;53.266;7.920;2023-04-07T02:21:34;17.20;;;12.35;;
29662;SDS011;16578;53.266;7.920;2023-04-07T02:24:01;19.42;;;15.07;;
29662;SDS011;16578;53.266;7.920;2023-04-07T02:26:32;20.48;;;15.05;;
29662;SDS011;16578;53.266;7.920;2023-04-07T02:28:59;19.17;;;13.93;;
29662;SDS011;16578;53.266;7.920;2023-04-07T02:31:25;21.42;;;13.88;;
29662;SDS011;16578;53.266;7.920;2023-04-07T02:33:50;19.95;;;14.60;;
29662;SDS011;16578;53.266;7.920;2023-04-07T02:36:16;21.52;;;14.80;;
29662;SDS011;16578;53.266;7.920;2023-04-07T02:38:41;19.98;;;14.50;;
29662;SDS011;16578;53.266;7.920;2023-04-07T02:41:07;22.02;;;16.20;;
29662;SDS011;16578;53.266;7.920;2023-04-07T02:43:33;22.63;;;15.75;;
29662;SDS011;16578;53.266;7.920;2023-04-07T02:45:58;24.80;;;15.18;;
29662;SDS011;16578;53.266;7.920;2023-04-07T02:48:24;22.00;;;15.02;;
29662;SDS011;16578;53.266;7.920;2023-04-07T02:50:49;22.48;;;14.05;;
29662;SDS011;16578;53.266;7.920;2023-04-07T02:53:15;17.50;;;13.68;;
29662;SDS011;16578;53.266;7.920;2023-04-07T02:55:40;19.65;;;15.07;;
29662;SDS011;16578;53.266;7.920;2023-04-07T02:58:06;19.77;;;14.27;;
29662;SDS011;16578;53.266;7.920;2023-04-07T03:00:32;21.33;;;15.45;;
29662;SDS011;16578;53.266;7.920;2023-04-07T03:02:58;19.98;;;14.95;;
29662;SDS011;16578;53.266;7.920;2023-04-07T03:05:24;19.13;;;13.90;;
29662;SDS011;16578;53.266;7.920;2023-04-07T03:07:49;17.45;;;13.52;;
29662;SDS011;16578;53.266;7.920;2023-04-07T03:10:15;17.85;;;13.57;;
29662;SDS011;16578;53.266;7.920;2023-04-07T03:12:41;18.35;;;12.95;;
29662;SDS011;16578;53.266;7.920;2023-04-07T03:15:07;19.38;;;13.00;;
29662;SDS011;16578;53.266;7.920;2023-04-07T03:17:33;20.13;;;12.98;;
29662;SDS011;16578;53.266;7.920;2023-04-07T03:19:59;17.17;;;13.30;;
29662;SDS011;16578;53.266;7.920;2023-04-07T03:22:24;19.20;;;13.27;;
29662;SDS011;16578;53.266;7.920;2023-04-07T03:24:50;18.80;;;13.80;;
29662;SDS011;16578;53.266;7.920;2023-04-07T03:27:15;17.55;;;13.25;;
29662;SDS011;16578;53.266;7.920;2023-04-07T03:29:42;17.40;;;12.38;;
29662;SDS011;16578;53.266;7.920;2023-04-07T03:32:08;18.88;;;12.60;;
29662;SDS011;16578;53.266;7.920;2023-04-07T03:34:33;16.33;;;11.48;;
29662;SDS011;16578;53.266;7.920;2023-04-07T03:36:59;16.83;;;12.45;;
29662;SDS011;16578;53.266;7.920;2023-04-07T03:39:25;17.33;;;12.00;;
29662;SDS011;16578;53.266;7.920;2023-04-07T03:41:50;17.65;;;12.20;;
29662;SDS011;16578;53.266;7.920;2023-04-07T03:44:16;18.60;;;12.90;;
29662;SDS011;16578;53.266;7.920;2023-04-07T03:46:41;16.25;;;12.13;;
29662;SDS011;16578;53.266;7.920;2023-04-07T03:49:09;16.15;;;11.95;;
29662;SDS011;16578;53.266;7.920;2023-04-07T03:51:35;16.38;;;11.10;;
29662;SDS011;16578;53.266;7.920;2023-04-07T03:54:00;16.15;;;10.95;;
29662;SDS011;16578;53.266;7.920;2023-04-07T03:56:26;14.10;;;11.15;;
29662;SDS011;16578;53.266;7.920;2023-04-07T03:58:52;15.85;;;11.60;;
29662;SDS011;16578;53.266;7.920;2023-04-07T04:01:17;19.63;;;11.52;;
29662;SDS011;16578;53.266;7.920;2023-04-07T04:03:43;17.35;;;11.35;;
29662;SDS011;16578;53.266;7.920;2023-04-07T04:06:08;18.58;;;11.70;;
29662;SDS011;16578;53.266;7.920;2023-04-07T04:08:34;16.35;;;12.95;;
29662;SDS011;16578;53.266;7.920;2023-04-07T04:10:59;19.50;;;12.00;;
29662;SDS011;16578;53.266;7.920;2023-04-07T04:13:25;17.52;;;11.77;;
29662;SDS011;16578;53.266;7.920;2023-04-07T04:15:51;20.38;;;12.50;;
29662;SDS011;16578;53.266;7.920;2023-04-07T04:18:17;15.05;;;11.73;;
29662;SDS011;16578;53.266;7.920;2023-04-07T04:20:42;19.02;;;12.07;;
29662;SDS011;16578;53.266;7.920;2023-04-07T04:23:08;16.83;;;11.80;;
29662;SDS011;16578;53.266;7.920;2023-04-07T04:25:33;13.70;;;10.77;;
29662;SDS011;16578;53.266;7.920;2023-04-07T04:27:59;15.80;;;11.68;;
29662;SDS011;16578;53.266;7.920;2023-04-07T04:30:25;15.82;;;11.65;;
29662;SDS011;16578;53.266;7.920;2023-04-07T04:32:51;15.93;;;11.32;;
29662;SDS011;16578;53.266;7.920;2023-04-07T04:35:17;15.40;;;10.70;;
29662;SDS011;16578;53.266;7.920;2023-04-07T04:37:42;16.38;;;11.63;;
29662;SDS011;16578;53.266;7.920;2023-04-07T04:40:08;16.60;;;12.02;;
29662;SDS011;16578;53.266;7.920;2023-04-07T04:42:35;16.45;;;11.80;;
29662;SDS011;16578;53.266;7.920;2023-04-07T04:45:01;16.80;;;12.50;;
29662;SDS011;16578;53.266;7.920;2023-04-07T04:47:26;17.48;;;11.93;;
29662;SDS011;16578;53.266;7.920;2023-04-07T04:49:52;18.13;;;12.57;;
29662;SDS011;16578;53.266;7.920;2023-04-07T04:52:17;16.55;;;11.85;;
29662;SDS011;16578;53.266;7.920;2023-04-07T04:54:43;20.10;;;12.48;;
29662;SDS011;16578;53.266;7.920;2023-04-07T04:57:08;17.55;;;11.77;;
29662;SDS011;16578;53.266;7.920;2023-04-07T04:59:34;15.50;;;11.77;;
29662;SDS011;16578;53.266;7.920;2023-04-07T05:02:00;15.15;;;12.32;;
29662;SDS011;16578;53.266;7.920;2023-04-07T05:04:25;17.27;;;12.25;;
29662;SDS011;16578;53.266;7.920;2023-04-07T05:06:52;17.92;;;11.77;;
29662;SDS011;16578;53.266;7.920;2023-04-07T05:09:17;16.45;;;11.00;;
29662;SDS011;16578;53.266;7.920;2023-04-07T05:11:43;14.25;;;10.13;;
29662;SDS011;16578;53.266;7.920;2023-04-07T05:14:08;14.75;;;11.60;;
29662;SDS011;16578;53.266;7.920;2023-04-07T05:16:34;14.15;;;10.88;;
29662;SDS011;16578;53.266;7.920;2023-04-07T05:19:00;16.73;;;11.32;;
29662;SDS011;16578;53.266;7.920;2023-04-07T05:21:26;20.10;;;13.00;;
29662;SDS011;16578;53.266;7.920;2023-04-07T05:23:51;16.55;;;11.48;;
29662;SDS011;16578;53.266;7.920;2023-04-07T05:26:17;17.23;;;10.95;;
29662;SDS011;16578;53.266;7.920;2023-04-07T05:28:43;15.43;;;11.32;;
29662;SDS011;16578;53.266;7.920;2023-04-07T05:31:08;15.52;;;10.77;;
29662;SDS011;16578;53.266;7.920;2023-04-07T05:33:34;16.80;;;11.15;;
29662;SDS011;16578;53.266;7.920;2023-04-07T05:36:00;17.75;;;11.30;;
29662;SDS011;16578;53.266;7.920;2023-04-07T05:38:25;13.55;;;11.18;;
29662;SDS011;16578;53.266;7.920;2023-04-07T05:40:51;16.55;;;10.48;;
29662;SDS011;16578;53.266;7.920;2023-04-07T05:43:16;15.32;;;10.88;;
29662;SDS011;16578;53.266;7.920;2023-04-07T05:45:42;14.27;;;10.63;;
29662;SDS011;16578;53.266;7.920;2023-04-07T05:48:07;14.32;;;9.77;;
29662;SDS011;16578;53.266;7.920;2023-04-07T05:50:33;14.00;;;11.00;;
29662;SDS011;16578;53.266;7.920;2023-04-07T05:52:58;15.82;;;11.10;;
29662;SDS011;16578;53.266;7.920;2023-04-07T05:55:24;16.08;;;10.73;;
29662;SDS011;16578;53.266;7.920;2023-04-07T05:57:51;13.95;;;10.57;;
29662;SDS011;16578;53.266;7.920;2023-04-07T06:00:16;15.85;;;11.38;;
29662;SDS011;16578;53.266;7.920;2023-04-07T06:02:43;13.80;;;10.40;;
29662;SDS011;16578;53.266;7.920;2023-04-07T06:05:09;16.10;;;10.48;;
29662;SDS011;16578;53.266;7.920;2023-04-07T06:07:35;13.70;;;10.00;;
29662;SDS011;16578;53.266;7.920;2023-04-07T06:10:01;13.82;;;9.88;;
29662;SDS011;16578;53.266;7.920;2023-04-07T06:12:26;16.27;;;11.40;;
29662;SDS011;16578;53.266;7.920;2023-04-07T06:14:52;15.57;;;10.90;;
29662;SDS011;16578;53.266;7.920;2023-04-07T06:17:19;14.63;;;11.43;;
29662;SDS011;16578;53.266;7.920;2023-04-07T06:19:45;13.57;;;10.63;;
29662;SDS011;16578;53.266;7.920;2023-04-07T06:22:10;12.70;;;10.07;;
29662;SDS011;16578;53.266;7.920;2023-04-07T06:24:36;14.35;;;9.65;;
29662;SDS011;16578;53.266;7.920;2023-04-07T06:27:02;14.70;;;10.75;;
29662;SDS011;16578;53.266;7.920;2023-04-07T06:29:28;14.88;;;10.63;;
29662;SDS011;16578;53.266;7.920;2023-04-07T06:31:54;12.27;;;9.68;;
29662;SDS011;16578;53.266;7.920;2023-04-07T06:34:20;13.57;;;9.73;;
29662;SDS011;16578;53.266;7.920;2023-04-07T06:36:45;15.32;;;10.77;;
29662;SDS011;16578;53.266;7.920;2023-04-07T06:39:11;16.70;;;11.25;;
29662;SDS011;16578;53.266;7.920;2023-04-07T06:41:36;15.57;;;10.77;;
29662;SDS011;16578;53.266;7.920;2023-04-07T06:44:02;13.75;;;10.32;;
29662;SDS011;16578;53.266;7.920;2023-04-07T06:46:29;13.48;;;10.10;;
29662;SDS011;16578;53.266;7.920;2023-04-07T06:48:54;11.02;;;9.10;;
29662;SDS011;16578;53.266;7.920;2023-04-07T06:51:20;13.07;;;11.20;;
29662;SDS011;16578;53.266;7.920;2023-04-07T06:53:46;13.98;;;10.52;;
29662;SDS011;16578;53.266;7.920;2023-04-07T06:56:13;13.98;;;10.57;;
29662;SDS011;16578;53.266;7.920;2023-04-07T06:58:39;11.77;;;10.25;;
29662;SDS011;16578;53.266;7.920;2023-04-07T07:01:05;13.65;;;11.27;;
29662;SDS011;16578;53.266;7.920;2023-04-07T07:03:31;14.43;;;11.50;;
29662;SDS011;16578;53.266;7.920;2023-04-07T07:05:57;14.20;;;10.93;;
29662;SDS011;16578;53.266;7.920;2023-04-07T07:08:24;14.18;;;10.30;;
29662;SDS011;16578;53.266;7.920;2023-04-07T07:10:50;14.05;;;10.48;;
29662;SDS011;16578;53.266;7.920;2023-04-07T07:13:17;13.75;;;10.38;;
29662;SDS011;16578;53.266;7.920;2023-04-07T07:15:43;13.43;;;10.32;;
29662;SDS011;16578;53.266;7.920;2023-04-07T07:18:10;14.13;;;9.90;;
29662;SDS011;16578;53.266;7.920;2023-04-07T07:20:36;15.50;;;11.18;;
29662;SDS011;16578;53.266;7.920;2023-04-07T07:23:01;14.00;;;10.75;;
29662;SDS011;16578;53.266;7.920;2023-04-07T07:25:27;12.10;;;10.38;;
29662;SDS011;16578;53.266;7.920;2023-04-07T07:27:53;12.27;;;9.90;;
29662;SDS011;16578;53.266;7.920;2023-04-07T07:30:22;12.02;;;9.82;;
29662;SDS011;16578;53.266;7.920;2023-04-07T07:32:49;16.30;;;10.85;;
29662;SDS011;16578;53.266;7.920;2023-04-07T07:35:15;13.52;;;10.40;;
29662;SDS011;16578;53.266;7.920;2023-04-07T07:37:44;14.18;;;11.13;;
29662;SDS011;16578;53.266;7.920;2023-04-07T07:40:09;13.68;;;10.93;;
29662;SDS011;16578;53.266;7.920;2023-04-07T07:42:36;13.90;;;10.90;;
29662;SDS011;16578;53.266;7.920;2023-04-07T07:45:02;12.35;;;10.25;;
29662;SDS011;16578;53.266;7.920;2023-04-07T07:47:36;12.65;;;10.63;;
29662;SDS011;16578;53.266;7.920;2023-04-07T07:50:17;12.48;;;10.38;;
29662;SDS011;16578;53.266;7.920;2023-04-07T07:52:48;11.23;;;9.68;;
29662;SDS011;16578;53.266;7.920;2023-04-07T07:55:14;14.25;;;10.02;;
29662;SDS011;16578;53.266;7.920;2023-04-07T07:57:46;12.32;;;10.45;;
29662;SDS011;16578;53.266;7.920;2023-04-07T08:00:11;12.98;;;9.48;;
29662;SDS011;16578;53.266;7.920;2023-04-07T08:02:43;11.25;;;9.63;;
29662;SDS011;16578;53.266;7.920;2023-04-07T08:05:14;12.35;;;9.85;;
29662;SDS011;16578;53.266;7.920;2023-04-07T08:07:42;11.45;;;9.63;;
29662;SDS011;16578;53.266;7.920;2023-04-07T08:10:08;14.45;;;10.88;;
29662;SDS011;16578;53.266;7.920;2023-04-07T08:12:37;11.27;;;9.68;;
29662;SDS011;16578;53.266;7.920;2023-04-07T08:15:06;11.15;;;9.32;;
29662;SDS011;16578;53.266;7.920;2023-04-07T08:17:34;11.88;;;9.52;;
29662;SDS011;16578;53.266;7.920;2023-04-07T08:20:00;10.23;;;8.65;;
29662;SDS011;16578;53.266;7.920;2023-04-07T08:22:27;12.52;;;9.40;;
29662;SDS011;16578;53.266;7.920;2023-04-07T08:24:55;11.70;;;9.88;;
29662;SDS011;16578;53.266;7.920;2023-04-07T08:29:59;11.30;;;10.10;;
29662;SDS011;16578;53.266;7.920;2023-04-07T08:32:33;11.68;;;9.63;;
29662;SDS011;16578;53.266;7.920;2023-04-07T08:35:02;12.40;;;9.60;;
29662;SDS011;16578;53.266;7.920;2023-04-07T08:37:29;13.75;;;9.90;;
29662;SDS011;16578;53.266;7.920;2023-04-07T08:39:55;13.75;;;9.98;;
29662;SDS011;16578;53.266;7.920;2023-04-07T08:42:21;12.82;;;10.13;;
29662;SDS011;16578;53.266;7.920;2023-04-07T08:44:53;13.02;;;9.40;;
29662;SDS011;16578;53.266;7.920;2023-04-07T08:49:47;10.80;;;8.52;;
29662;SDS011;16578;53.266;7.920;2023-04-07T08:52:16;10.00;;;8.95;;
29662;SDS011;16578;53.266;7.920;2023-04-07T08:54:46;11.13;;;9.60;;
29662;SDS011;16578;53.266;7.920;2023-04-07T08:57:12;11.57;;;10.35;;
29662;SDS011;16578;53.266;7.920;2023-04-07T08:59:40;12.32;;;11.02;;
29662;SDS011;16578;53.266;7.920;2023-04-07T09:02:09;15.98;;;9.75;;
29662;SDS011;16578;53.266;7.920;2023-04-07T09:04:35;11.48;;;8.73;;
29662;SDS011;16578;53.266;7.920;2023-04-07T09:07:01;11.95;;;9.80;;
29662;SDS011;16578;53.266;7.920;2023-04-07T09:09:26;9.52;;;8.52;;
29662;SDS011;16578;53.266;7.920;2023-04-07T09:11:53;12.00;;;10.80;;
29662;SDS011;16578;53.266;7.920;2023-04-07T09:14:19;12.95;;;10.73;;
29662;SDS011;16578;53.266;7.920;2023-04-07T09:16:45;12.60;;;8.60;;
29662;SDS011;16578;53.266;7.920;2023-04-07T09:19:11;11.35;;;9.40;;
29662;SDS011;16578;53.266;7.920;2023-04-07T09:21:46;11.48;;;9.10;;
29662;SDS011;16578;53.266;7.920;2023-04-07T09:24:26;11.23;;;9.05;;
29662;SDS011;16578;53.266;7.920;2023-04-07T09:27:08;12.45;;;9.48;;
29662;SDS011;16578;53.266;7.920;2023-04-07T09:29:42;11.77;;;9.50;;
29662;SDS011;16578;53.266;7.920;2023-04-07T09:32:09;13.50;;;10.52;;
29662;SDS011;16578;53.266;7.920;2023-04-07T09:34:38;14.70;;;10.93;;
29662;SDS011;16578;53.266;7.920;2023-04-07T09:37:06;10.88;;;9.77;;
29662;SDS011;16578;53.266;7.920;2023-04-07T09:39:33;11.77;;;9.43;;
29662;SDS011;16578;53.266;7.920;2023-04-07T09:42:16;13.20;;;10.30;;
29662;SDS011;16578;53.266;7.920;2023-04-07T09:44:41;12.65;;;10.00;;
29662;SDS011;16578;53.266;7.920;2023-04-07T09:47:08;15.07;;;9.73;;
29662;SDS011;16578;53.266;7.920;2023-04-07T09:49:34;14.20;;;11.75;;
29662;SDS011;16578;53.266;7.920;2023-04-07T09:52:17;15.15;;;11.82;;
29662;SDS011;16578;53.266;7.920;2023-04-07T09:54:44;14.95;;;10.75;;
29662;SDS011;16578;53.266;7.920;2023-04-07T09:57:11;13.77;;;10.77;;
29662;SDS011;16578;53.266;7.920;2023-04-07T09:59:38;15.35;;;12.43;;
29662;SDS011;16578;53.266;7.920;2023-04-07T10:02:08;12.35;;;11.02;;
29662;SDS011;16578;53.266;7.920;2023-04-07T10:04:34;15.65;;;9.73;;
29662;SDS011;16578;53.266;7.920;2023-04-07T10:07:01;10.13;;;8.40;;
29662;SDS011;16578;53.266;7.920;2023-04-07T10:09:27;12.50;;;9.43;;
29662;SDS011;16578;53.266;7.920;2023-04-07T10:11:54;13.27;;;9.05;;
29662;SDS011;16578;53.266;7.920;2023-04-07T10:14:25;11.57;;;9.07;;
29662;SDS011;16578;53.266;7.920;2023-04-07T10:16:52;11.48;;;9.73;;
29662;SDS011;16578;53.266;7.920;2023-04-07T10:19:18;12.20;;;9.77;;
29662;SDS011;16578;53.266;7.920;2023-04-07T10:21:45;13.93;;;11.25;;
29662;SDS011;16578;53.266;7.920;2023-04-07T10:24:24;13.68;;;11.30;;
29662;SDS011;16578;53.266;7.920;2023-04-07T10:27:13;12.73;;;8.75;;
29662;SDS011;16578;53.266;7.920;2023-04-07T10:29:41;13.57;;;10.32;;
29662;SDS011;16578;53.266;7.920;2023-04-07T10:32:10;15.13;;;10.93;;
29662;SDS011;16578;53.266;7.920;2023-04-07T10:37:14;15.02;;;9.82;;
29662;SDS011;16578;53.266;7.920;2023-04-07T10:39:44;12.45;;;9.80;;
29662;SDS011;16578;53.266;7.920;2023-04-07T10:45:03;11.63;;;9.45;;
29662;SDS011;16578;53.266;7.920;2023-04-07T10:47:33;11.35;;;9.63;;
29662;SDS011;16578;53.266;7.920;2023-04-07T10:50:16;14.00;;;10.43;;
29662;SDS011;16578;53.266;7.920;2023-04-07T10:52:43;12.73;;;9.65;;
29662;SDS011;16578;53.266;7.920;2023-04-07T10:55:30;12.63;;;9.93;;
29662;SDS011;16578;53.266;7.920;2023-04-07T11:03:39;14.80;;;10.20;;
29662;SDS011;16578;53.266;7.920;2023-04-07T11:06:15;12.38;;;9.80;;
29662;SDS011;16578;53.266;7.920;2023-04-07T11:08:45;11.88;;;9.45;;
29662;SDS011;16578;53.266;7.920;2023-04-07T11:11:12;12.75;;;9.18;;
29662;SDS011;16578;53.266;7.920;2023-04-07T11:13:43;14.57;;;11.32;;
29662;SDS011;16578;53.266;7.920;2023-04-07T11:16:17;12.15;;;10.32;;
29662;SDS011;16578;53.266;7.920;2023-04-07T11:18:44;10.75;;;8.80;;
29662;SDS011;16578;53.266;7.920;2023-04-07T11:21:15;11.07;;;8.25;;
29662;SDS011;16578;53.266;7.920;2023-04-07T11:23:42;13.32;;;10.07;;
29662;SDS011;16578;53.266;7.920;2023-04-07T11:26:10;13.60;;;9.90;;
29662;SDS011;16578;53.266;7.920;2023-04-07T11:31:23;11.10;;;9.23;;
29662;SDS011;16578;53.266;7.920;2023-04-07T11:33:53;13.30;;;10.15;;
29662;SDS011;16578;53.266;7.920;2023-04-07T11:36:30;13.57;;;10.05;;
29662;SDS011;16578;53.266;7.920;2023-04-07T11:38:57;11.80;;;9.20;;
29662;SDS011;16578;53.266;7.920;2023-04-07T11:41:24;14.02;;;10.32;;
29662;SDS011;16578;53.266;7.920;2023-04-07T11:44:07;11.43;;;9.60;;
29662;SDS011;16578;53.266;7.920;2023-04-07T11:46:35;11.00;;;9.23;;
29662;SDS011;16578;53.266;7.920;2023-04-07T11:49:11;11.43;;;9.45;;
29662;SDS011;16578;53.266;7.920;2023-04-07T11:51:37;11.07;;;8.85;;
29662;SDS011;16578;53.266;7.920;2023-04-07T11:54:03;11.57;;;9.98;;
29662;SDS011;16578;53.266;7.920;2023-04-07T11:56:29;14.60;;;10.00;;
29662;SDS011;16578;53.266;7.920;2023-04-07T11:59:05;13.68;;;9.82;;
29662;SDS011;16578;53.266;7.920;2023-04-07T12:01:40;10.95;;;9.48;;
29662;SDS011;16578;53.266;7.920;2023-04-07T12:04:05;11.65;;;8.65;;
29662;SDS011;16578;53.266;7.920;2023-04-07T12:06:36;13.10;;;9.73;;
29662;SDS011;16578;53.266;7.920;2023-04-07T12:09:07;17.08;;;9.50;;
29662;SDS011;16578;53.266;7.920;2023-04-07T12:11:48;13.77;;;10.32;;
29662;SDS011;16578;53.266;7.920;2023-04-07T12:14:14;13.40;;;10.30;;
29662;SDS011;16578;53.266;7.920;2023-04-07T12:16:40;16.25;;;10.95;;
29662;SDS011;16578;53.266;7.920;2023-04-07T12:19:06;12.45;;;9.65;;
29662;SDS011;16578;53.266;7.920;2023-04-07T12:21:32;11.63;;;9.43;;
29662;SDS011;16578;53.266;7.920;2023-04-07T12:23:57;14.52;;;10.52;;
29662;SDS011;16578;53.266;7.920;2023-04-07T12:26:23;11.95;;;9.40;;
29662;SDS011;16578;53.266;7.920;2023-04-07T12:28:49;12.52;;;10.50;;
29662;SDS011;16578;53.266;7.920;2023-04-07T12:31:15;15.20;;;10.80;;
29662;SDS011;16578;53.266;7.920;2023-04-07T12:33:40;11.77;;;9.30;;
29662;SDS011;16578;53.266;7.920;2023-04-07T12:36:06;12.02;;;9.60;;
29662;SDS011;16578;53.266;7.920;2023-04-07T12:38:32;12.20;;;9.60;;
29662;SDS011;16578;53.266;7.920;2023-04-07T12:40:57;13.00;;;10.13;;
29662;SDS011;16578;53.266;7.920;2023-04-07T12:43:27;14.55;;;9.85;;
29662;SDS011;16578;53.266;7.920;2023-04-07T12:45:54;11.43;;;9.15;;
29662;SDS011;16578;53.266;7.920;2023-04-07T12:48:19;14.07;;;9.55;;
29662;SDS011;16578;53.266;7.920;2023-04-07T12:50:45;10.77;;;8.15;;
29662;SDS011;16578;53.266;7.920;2023-04-07T12:53:11;10.50;;;8.70;;
29662;SDS011;16578;53.266;7.920;2023-04-07T12:55:37;11.85;;;8.55;;
29662;SDS011;16578;53.266;7.920;2023-04-07T12:58:03;10.40;;;8.38;;
29662;SDS011;16578;53.266;7.920;2023-04-07T13:00:28;10.30;;;7.45;;
29662;SDS011;16578;53.266;7.920;2023-04-07T13:02:54;11.18;;;8.55;;
29662;SDS011;16578;53.266;7.920;2023-04-07T13:05:20;13.10;;;9.48;;
29662;SDS011;16578;53.266;7.920;2023-04-07T13:07:46;11.27;;;8.48;;
29662;SDS011;16578;53.266;7.920;2023-04-07T13:10:11;9.05;;;8.05;;
29662;SDS011;16578;53.266;7.920;2023-04-07T13:12:37;12.88;;;9.38;;
29662;SDS011;16578;53.266;7.920;2023-04-07T13:15:04;11.90;;;9.23;;
29662;SDS011;16578;53.266;7.920;2023-04-07T13:17:30;12.00;;;8.68;;
29662;SDS011;16578;53.266;7.920;2023-04-07T13:19:55;11.05;;;8.35;;
29662;SDS011;16578;53.266;7.920;2023-04-07T13:22:21;10.70;;;7.30;;
29662;SDS011;16578;53.266;7.920;2023-04-07T13:24:47;8.73;;;7.15;;
29662;SDS011;16578;53.266;7.920;2023-04-07T13:27:13;8.48;;;6.53;;
29662;SDS011;16578;53.266;7.920;2023-04-07T13:29:39;11.52;;;8.35;;
29662;SDS011;16578;53.266;7.920;2023-04-07T13:32:08;10.68;;;8.30;;
29662;SDS011;16578;53.266;7.920;2023-04-07T13:34:36;10.20;;;8.48;;
29662;SDS011;16578;53.266;7.920;2023-04-07T13:37:03;12.90;;;9.38;;
29662;SDS011;16578;53.266;7.920;2023-04-07T13:39:30;12.77;;;8.50;;
29662;SDS011;16578;53.266;7.920;2023-04-07T13:41:56;9.15;;;8.15;;
29662;SDS011;16578;53.266;7.920;2023-04-07T13:44:23;10.35;;;8.32;;
29662;SDS011;16578;53.266;7.920;2023-04-07T13:46:50;11.77;;;8.23;;
29662;SDS011;16578;53.266;7.920;2023-04-07T13:49:16;11.73;;;9.35;;
29662;SDS011;16578;53.266;7.920;2023-04-07T13:51:42;13.05;;;9.23;;
29662;SDS011;16578;53.266;7.920;2023-04-07T13:54:07;10.40;;;8.85;;
29662;SDS011;16578;53.266;7.920;2023-04-07T13:56:33;11.95;;;8.20;;
29662;SDS011;16578;53.266;7.920;2023-04-07T13:59:02;10.27;;;8.48;;
29662;SDS011;16578;53.266;7.920;2023-04-07T14:01:32;12.90;;;9.20;;
29662;SDS011;16578;53.266;7.920;2023-04-07T14:03:59;9.38;;;7.90;;
29662;SDS011;16578;53.266;7.920;2023-04-07T14:06:25;10.57;;;8.73;;
29662;SDS011;16578;53.266;7.920;2023-04-07T14:08:51;9.35;;;8.32;;
29662;SDS011;16578;53.266;7.920;2023-04-07T14:11:17;10.40;;;7.63;;
29662;SDS011;16578;53.266;7.920;2023-04-07T14:13:43;10.63;;;8.07;;
29662;SDS011;16578;53.266;7.920;2023-04-07T14:16:09;9.85;;;7.85;;
29662;SDS011;16578;53.266;7.920;2023-04-07T14:18:37;8.88;;;6.55;;
29662;SDS011;16578;53.266;7.920;2023-04-07T14:21:03;10.63;;;8.18;;
29662;SDS011;16578;53.266;7.920;2023-04-07T14:23:29;9.18;;;6.82;;
29662;SDS011;16578;53.266;7.920;2023-04-07T14:25:56;8.85;;;6.93;;
29662;SDS011;16578;53.266;7.920;2023-04-07T14:28:22;11.35;;;8.27;;
29662;SDS011;16578;53.266;7.920;2023-04-07T14:30:48;11.60;;;8.35;;
29662;SDS011;16578;53.266;7.920;2023-04-07T14:33:13;9.20;;;7.65;;
29662;SDS011;16578;53.266;7.920;2023-04-07T14:35:41;10.43;;;7.75;;
29662;SDS011;16578;53.266;7.920;2023-04-07T14:38:07;11.27;;;8.00;;
29662;SDS011;16578;53.266;7.920;2023-04-07T14:40:33;10.30;;;7.43;;
29662;SDS011;16578;53.266;7.920;2023-04-07T14:43:00;10.05;;;7.93;;
29662;SDS011;16578;53.266;7.920;2023-04-07T14:45:27;10.25;;;6.88;;
29662;SDS011;16578;53.266;7.920;2023-04-07T14:47:52;8.68;;;6.60;;
29662;SDS011;16578;53.266;7.920;2023-04-07T14:50:18;9.95;;;6.75;;
29662;SDS011;16578;53.266;7.920;2023-04-07T14:52:44;8.75;;;6.55;;
29662;SDS011;16578;53.266;7.920;2023-04-07T14:55:09;7.88;;;6.70;;